Time;durP1;ratioP1;P1;durP2;ratioP2;P2;SDS_P1;SDS_P2;PMS_P1;PMS_P2;Temp;Humidity;BMP_temperature;BMP_pressure;BME280_temperature;BME280_humidity;BME280_pressure;Samples;Min_cycle;Max_cycle;Signal;HPM_P1;HPM_P2
2021/05/27 00:01:47;;;;;;;;;;;9.70;99.90;;;;;;5027759;28;19963;-52
2021/05/27 00:04:13;;;;;;;;;;;9.70;99.90;;;;;;5025715;28;19928;-50
2021/05/27 00:06:38;;;;;;;;;;;9.70;99.90;;;;;;5027470;28;19909;-50
2021/05/27 00:09:04;;;;;;;;;;;9.70;99.90;;;;;;5023671;28;19913;-50
2021/05/27 00:11:31;;;;;;;;;;;9.60;99.90;;;;;;5023805;28;19913;-50
2021/05/27 00:14:03;;;;;;;;;;;9.60;99.90;;;;;;5026116;28;20093;-52
2021/05/27 00:16:28;;;;;;;;;;;9.60;99.90;;;;;;5015972;28;19917;-50
2021/05/27 00:18:54;;;;;;;;;;;9.60;99.90;;;;;;5023431;28;19914;-51
2021/05/27 00:21:20;;;;;;;;;;;9.50;99.90;;;;;;5027437;28;20287;-49
2021/05/27 00:23:46;;;;;;;;;;;9.60;99.90;;;;;;5026300;28;19916;-51
2021/05/27 00:26:11;;;;;;;;;;;9.50;99.90;;;;;;5027489;28;19909;-49
2021/05/27 00:28:37;;;;;;;;;;;9.50;99.90;;;;;;5019837;28;19993;-52
2021/05/27 00:31:03;;;;;;;;;;;9.60;99.90;;;;;;5026185;28;19909;-52
2021/05/27 00:33:28;;;;;;;;;;;9.50;99.90;;;;;;5026577;28;19963;-52
2021/05/27 00:35:54;;;;;;;;;;;9.50;99.90;;;;;;5030774;28;19983;-53
2021/05/27 00:38:19;;;;;;;;;;;9.50;99.90;;;;;;5031136;28;19909;-53
2021/05/27 00:40:45;;;;;;;;;;;9.50;99.90;;;;;;5030322;28;19913;-51
2021/05/27 00:43:10;;;;;;;;;;;9.50;99.90;;;;;;5031002;28;20001;-51
2021/05/27 00:45:36;;;;;;;;;;;9.40;99.90;;;;;;5031789;28;20352;-49
2021/05/27 00:48:01;;;;;;;;;;;9.40;99.90;;;;;;5029203;28;19913;-54
2021/05/27 00:50:27;;;;;;;;;;;9.40;99.90;;;;;;5026365;28;20142;-52
2021/05/27 00:52:53;;;;;;;;;;;9.40;99.90;;;;;;5013847;28;19921;-50
2021/05/27 00:55:20;;;;;;;;;;;9.40;99.90;;;;;;5031900;28;20218;-53
2021/05/27 00:57:46;;;;;;;;;;;9.30;99.90;;;;;;5015537;28;19917;-49
2021/05/27 01:00:16;;;;;;;;;;;9.30;99.90;;;;;;5020501;28;20467;-50
2021/05/27 01:02:41;;;;;;;;;;;9.30;99.90;;;;;;5013814;28;19921;-51
2021/05/27 01:05:08;;;;;;;;;;;9.30;99.90;;;;;;5013081;28;19913;-50
2021/05/27 01:07:34;;;;;;;;;;;9.30;99.90;;;;;;5028989;28;19975;-51
2021/05/27 01:09:59;;;;;;;;;;;9.20;99.90;;;;;;5030743;28;19952;-50
2021/05/27 01:12:25;;;;;;;;;;;9.30;99.90;;;;;;5030609;28;19910;-52
2021/05/27 01:17:35;;;;;;;;;;;9.20;99.90;;;;;;5031469;28;20329;-50
2021/05/27 01:20:01;;;;;;;;;;;9.20;99.90;;;;;;5031328;28;19913;-49
2021/05/27 01:22:27;;;;;;;;;;;9.20;99.90;;;;;;5026708;28;19996;-50
2021/05/27 01:24:52;;;;;;;;;;;9.20;99.90;;;;;;5015810;28;20414;-52
2021/05/27 01:27:18;;;;;;;;;;;9.20;99.90;;;;;;5011604;28;19913;-50
2021/05/27 01:29:49;;;;;;;;;;;9.20;99.90;;;;;;5013222;28;19941;-52
2021/05/27 01:32:14;;;;;;;;;;;9.20;99.90;;;;;;5025297;28;19974;-53
2021/05/27 01:34:40;;;;;;;;;;;9.20;99.90;;;;;;5031272;28;20011;-50
2021/05/27 01:37:05;;;;;;;;;;;9.30;99.90;;;;;;5029376;28;20498;-51
2021/05/27 01:39:31;;;;;;;;;;;9.30;99.90;;;;;;5030605;28;19991;-50
2021/05/27 01:41:56;;;;;;;;;;;9.30;99.90;;;;;;5030842;28;19909;-53
2021/05/27 01:44:21;;;;;;;;;;;9.20;99.90;;;;;;5030752;28;20348;-51
2021/05/27 01:46:47;;;;;;;;;;;9.20;99.90;;;;;;5029484;28;19913;-50
2021/05/27 01:49:13;;;;;;;;;;;9.20;99.90;;;;;;5030560;28;19909;-51
2021/05/27 01:51:38;;;;;;;;;;;9.20;99.90;;;;;;5030355;28;19940;-52
2021/05/27 01:54:04;;;;;;;;;;;9.30;99.90;;;;;;5029077;28;19909;-50
2021/05/27 01:56:29;;;;;;;;;;;9.20;99.90;;;;;;5029209;28;19909;-52
2021/05/27 01:59:02;;;;;;;;;;;9.20;99.90;;;;;;5027787;28;19994;-50
2021/05/27 02:01:27;;;;;;;;;;;9.30;99.90;;;;;;5030572;28;19909;-51
2021/05/27 02:03:53;;;;;;;;;;;9.30;99.90;;;;;;5030567;28;20000;-50
2021/05/27 02:06:18;;;;;;;;;;;9.30;99.90;;;;;;5030449;28;19971;-50
2021/05/27 02:09:07;;;;;;;;;;;9.30;99.90;;;;;;5023306;28;19920;-51
2021/05/27 02:11:29;;;;;;;;;;;9.30;99.90;;;;;;5014759;28;20453;-53
2021/05/27 02:13:55;;;;;;;;;;;9.20;99.90;;;;;;5016471;28;19909;-50
2021/05/27 02:16:20;;;;;;;;;;;9.10;99.90;;;;;;5012339;28;20410;-50
2021/05/27 02:18:46;;;;;;;;;;;9.10;99.90;;;;;;5018431;28;19915;-52
2021/05/27 02:21:11;;;;;;;;;;;9.10;99.90;;;;;;5013898;28;19909;-49
2021/05/27 02:23:36;;;;;;;;;;;9.10;99.90;;;;;;5014611;28;20462;-51
2021/05/27 02:26:02;;;;;;;;;;;9.00;99.90;;;;;;5013241;28;20519;-53
2021/05/27 02:28:27;;;;;;;;;;;9.00;99.90;;;;;;5012166;28;20008;-50
2021/05/27 02:30:53;;;;;;;;;;;9.00;99.90;;;;;;5013662;28;19917;-51
2021/05/27 02:33:18;;;;;;;;;;;9.00;99.90;;;;;;5013278;23;19933;-79
2021/05/27 02:35:44;;;;;;;;;;;9.00;99.90;;;;;;5011443;28;19916;-78
2021/05/27 02:38:09;;;;;;;;;;;9.00;99.90;;;;;;4994544;28;19917;-77
2021/05/27 02:40:34;;;;;;;;;;;9.00;99.90;;;;;;4984561;28;20384;-78
2021/05/27 02:43:00;;;;;;;;;;;9.00;99.90;;;;;;4989631;28;20295;-77
2021/05/27 02:45:25;;;;;;;;;;;9.00;99.90;;;;;;4982617;28;19925;-77
2021/05/27 02:47:51;;;;;;;;;;;9.00;99.90;;;;;;4984482;28;19943;-78
2021/05/27 02:50:16;;;;;;;;;;;9.00;99.90;;;;;;4985865;28;19917;-77
2021/05/27 02:52:42;;;;;;;;;;;8.90;99.90;;;;;;4985131;28;19910;-78
2021/05/27 02:55:07;;;;;;;;;;;9.00;99.90;;;;;;4986793;28;20009;-78
2021/05/27 02:57:33;;;;;;;;;;;8.90;99.90;;;;;;4981112;28;19961;-78
2021/05/27 02:59:58;;;;;;;;;;;9.00;99.90;;;;;;4981791;28;20009;-78
2021/05/27 03:02:24;;;;;;;;;;;9.00;99.90;;;;;;4984469;28;19969;-79
2021/05/27 03:04:49;;;;;;;;;;;9.00;99.90;;;;;;4982716;28;19914;-77
2021/05/27 03:07:15;;;;;;;;;;;9.00;99.90;;;;;;4989904;28;19992;-80
2021/05/27 03:09:40;;;;;;;;;;;8.90;99.90;;;;;;4983409;28;19911;-79
2021/05/27 03:12:06;;;;;;;;;;;8.90;99.90;;;;;;4993648;28;20044;-78
2021/05/27 03:14:31;;;;;;;;;;;8.90;99.90;;;;;;4986811;28;19953;-79
2021/05/27 03:16:57;;;;;;;;;;;8.90;99.90;;;;;;4985186;28;19921;-78
2021/05/27 03:19:22;;;;;;;;;;;8.90;99.90;;;;;;4983927;28;19914;-78
2021/05/27 03:21:47;;;;;;;;;;;8.90;99.90;;;;;;4982525;28;19914;-78
2021/05/27 03:24:13;;;;;;;;;;;8.90;99.90;;;;;;4981021;28;19915;-79
2021/05/27 03:26:38;;;;;;;;;;;8.90;99.90;;;;;;4986922;28;19909;-78
2021/05/27 03:29:04;;;;;;;;;;;8.90;99.90;;;;;;5002998;28;19909;-78
2021/05/27 03:31:29;;;;;;;;;;;8.90;99.90;;;;;;4970856;28;19917;-78
2021/05/27 03:33:55;;;;;;;;;;;8.80;99.90;;;;;;4974997;28;19941;-78
2021/05/27 03:36:20;;;;;;;;;;;8.80;99.90;;;;;;4974095;28;20293;-77
2021/05/27 03:38:46;;;;;;;;;;;8.80;99.90;;;;;;4971358;28;20005;-79
2021/05/27 03:41:11;;;;;;;;;;;8.80;99.90;;;;;;4986737;28;19958;-78
2021/05/27 03:43:37;;;;;;;;;;;8.80;99.90;;;;;;4984478;28;19961;-78
2021/05/27 03:46:02;;;;;;;;;;;8.80;99.90;;;;;;4970581;28;19915;-79
2021/05/27 03:48:28;;;;;;;;;;;8.70;99.90;;;;;;4972066;28;19914;-79
2021/05/27 03:50:53;;;;;;;;;;;8.80;99.90;;;;;;4971762;28;19910;-78
2021/05/27 03:53:19;;;;;;;;;;;8.80;99.90;;;;;;4979220;28;19980;-78
2021/05/27 03:55:44;;;;;;;;;;;8.80;99.90;;;;;;4970224;28;20402;-78
2021/05/27 04:00:54;;;;;;;;;;;8.80;99.90;;;;;;4970324;28;19921;-78
2021/05/27 04:03:21;;;;;;;;;;;8.70;99.90;;;;;;4971465;28;20292;-77
2021/05/27 04:08:31;;;;;;;;;;;8.80;99.90;;;;;;4977955;28;20049;-78
2021/05/27 04:10:56;;;;;;;;;;;8.80;99.90;;;;;;4970602;28;19982;-78
2021/05/27 04:13:22;;;;;;;;;;;8.80;99.90;;;;;;4984439;28;19910;-76
2021/05/27 04:15:47;;;;;;;;;;;8.80;99.90;;;;;;4973198;28;20349;-77
2021/05/27 04:18:14;;;;;;;;;;;8.80;99.90;;;;;;4996147;28;19918;-77
2021/05/27 04:20:46;;;;;;;;;;;8.80;99.90;;;;;;4985349;28;19956;-78
2021/05/27 04:23:13;;;;;;;;;;;8.80;99.90;;;;;;4980247;28;19914;-77
2021/05/27 04:25:39;;;;;;;;;;;8.80;99.90;;;;;;4988217;28;20320;-78
2021/05/27 04:28:05;;;;;;;;;;;8.90;99.90;;;;;;4997821;28;19917;-77
2021/05/27 04:30:30;;;;;;;;;;;8.90;99.90;;;;;;4998702;28;19968;-77
2021/05/27 04:33:04;;;;;;;;;;;8.90;99.90;;;;;;4989669;28;20368;-77
2021/05/27 04:35:37;;;;;;;;;;;8.90;99.90;;;;;;4977683;28;19914;-77
2021/05/27 04:38:07;;;;;;;;;;;8.90;99.90;;;;;;4969475;28;20001;-77
2021/05/27 04:40:32;;;;;;;;;;;9.00;99.90;;;;;;4982399;28;19916;-79
2021/05/27 04:42:58;;;;;;;;;;;9.00;99.90;;;;;;4988947;28;19914;-77
2021/05/27 04:45:24;;;;;;;;;;;9.00;99.90;;;;;;4979307;28;20331;-77
2021/05/27 04:47:50;;;;;;;;;;;9.00;99.90;;;;;;4972516;28;19918;-77
2021/05/27 04:50:15;;;;;;;;;;;9.00;99.90;;;;;;4991155;28;19997;-77
2021/05/27 04:52:41;;;;;;;;;;;9.10;99.90;;;;;;4989179;28;19910;-76
2021/05/27 04:55:07;;;;;;;;;;;9.10;99.90;;;;;;4970388;28;19917;-77
2021/05/27 04:57:33;;;;;;;;;;;9.10;99.90;;;;;;4971679;28;19918;-77
2021/05/27 04:59:58;;;;;;;;;;;9.10;99.90;;;;;;4984397;28;20519;-76
2021/05/27 05:02:24;;;;;;;;;;;9.20;99.90;;;;;;4995443;28;19924;-77
2021/05/27 05:04:49;;;;;;;;;;;9.20;99.90;;;;;;4987255;28;20372;-77
2021/05/27 05:07:14;;;;;;;;;;;9.20;99.90;;;;;;4970238;28;20288;-77
2021/05/27 05:09:40;;;;;;;;;;;9.20;99.90;;;;;;4969165;28;19973;-77
2021/05/27 05:12:06;;;;;;;;;;;9.20;99.90;;;;;;5000394;28;19917;-76
2021/05/27 05:14:31;;;;;;;;;;;9.30;99.90;;;;;;4988298;28;19913;-77
2021/05/27 05:16:57;;;;;;;;;;;9.20;99.90;;;;;;4975561;28;19949;-76
2021/05/27 05:19:22;;;;;;;;;;;9.30;99.90;;;;;;4975887;28;20471;-76
2021/05/27 05:21:48;;;;;;;;;;;9.30;99.90;;;;;;4994574;28;19921;-76
2021/05/27 05:24:13;;;;;;;;;;;9.30;99.90;;;;;;5005592;28;19972;-77
2021/05/27 05:26:39;;;;;;;;;;;9.30;99.90;;;;;;4981482;28;19931;-77
2021/05/27 05:29:04;;;;;;;;;;;9.30;99.90;;;;;;4973095;28;20244;-76
2021/05/27 05:31:30;;;;;;;;;;;9.30;99.90;;;;;;4995225;28;19920;-76
2021/05/27 05:33:55;;;;;;;;;;;9.40;99.90;;;;;;5007170;28;20369;-76
2021/05/27 05:36:24;;;;;;;;;;;9.40;99.90;;;;;;4993107;28;19980;-76
2021/05/27 05:38:49;;;;;;;;;;;9.40;99.90;;;;;;4995762;28;19910;-77
2021/05/27 05:41:15;;;;;;;;;;;9.40;99.90;;;;;;4987471;28;19910;-76
2021/05/27 05:43:40;;;;;;;;;;;9.40;99.90;;;;;;4982718;28;19909;-76
2021/05/27 05:46:06;;;;;;;;;;;9.40;99.90;;;;;;4986503;28;19918;-76
2021/05/27 05:48:32;;;;;;;;;;;9.50;99.90;;;;;;4984172;28;19946;-76
2021/05/27 05:50:59;;;;;;;;;;;9.50;99.90;;;;;;4971158;28;19914;-76
2021/05/27 05:53:24;;;;;;;;;;;9.50;99.90;;;;;;4987203;28;19910;-77
2021/05/27 05:55:51;;;;;;;;;;;9.50;99.90;;;;;;4971543;28;19992;-77
2021/05/27 05:58:17;;;;;;;;;;;9.60;99.90;;;;;;4973628;28;19986;-77
2021/05/27 06:00:44;;;;;;;;;;;9.60;99.90;;;;;;4975528;28;20388;-77
2021/05/27 06:03:09;;;;;;;;;;;9.60;99.90;;;;;;4975706;28;19969;-78
2021/05/27 06:05:35;;;;;;;;;;;9.60;99.90;;;;;;4980054;28;19976;-77
2021/05/27 06:08:00;;;;;;;;;;;9.60;99.90;;;;;;4976356;28;19910;-76
2021/05/27 06:10:26;;;;;;;;;;;9.70;99.90;;;;;;4970287;28;19917;-77
2021/05/27 06:12:52;;;;;;;;;;;9.70;99.90;;;;;;4995728;28;19949;-77
2021/05/27 06:15:21;;;;;;;;;;;9.80;99.90;;;;;;4977787;28;20061;-77
2021/05/27 06:17:51;;;;;;;;;;;9.80;99.90;;;;;;4984320;28;20384;-77
2021/05/27 06:20:18;;;;;;;;;;;9.90;99.90;;;;;;4971501;28;20388;-77
2021/05/27 06:22:43;;;;;;;;;;;9.90;99.90;;;;;;4981675;28;20379;-77
2021/05/27 06:25:09;;;;;;;;;;;9.90;99.90;;;;;;4971715;28;20052;-76
2021/05/27 06:27:35;;;;;;;;;;;9.90;99.90;;;;;;4983321;28;20285;-77
2021/05/27 06:30:01;;;;;;;;;;;10.00;99.90;;;;;;4961550;28;19918;-77
2021/05/27 06:32:26;;;;;;;;;;;10.00;99.90;;;;;;4971426;28;19917;-76
2021/05/27 06:34:52;;;;;;;;;;;10.10;99.90;;;;;;4986523;28;19998;-77
2021/05/27 06:37:18;;;;;;;;;;;10.10;99.90;;;;;;4972010;28;19911;-76
2021/05/27 06:39:47;;;;;;;;;;;10.20;99.90;;;;;;4971069;28;20447;-76
2021/05/27 06:42:13;;;;;;;;;;;10.30;99.90;;;;;;4971726;28;19997;-77
2021/05/27 06:44:39;;;;;;;;;;;10.30;99.90;;;;;;4966841;28;19973;-77
2021/05/27 06:47:06;;;;;;;;;;;10.40;99.90;;;;;;4964257;28;21478;-77
2021/05/27 06:49:31;;;;;;;;;;;10.50;99.90;;;;;;4970581;28;20456;-77
2021/05/27 06:51:57;;;;;;;;;;;10.50;99.90;;;;;;4972792;28;19917;-77
2021/05/27 06:54:23;;;;;;;;;;;10.70;99.90;;;;;;4987220;28;19917;-76
2021/05/27 06:56:50;;;;;;;;;;;10.80;99.90;;;;;;4969380;28;19937;-77
2021/05/27 06:59:16;;;;;;;;;;;10.90;99.90;;;;;;4987551;28;20521;-77
2021/05/27 07:01:41;;;;;;;;;;;11.00;99.90;;;;;;4970934;28;19957;-79
2021/05/27 07:04:07;;;;;;;;;;;11.00;99.90;;;;;;4987142;28;19914;-77
2021/05/27 07:06:32;;;;;;;;;;;11.10;99.90;;;;;;4986051;28;20332;-77
2021/05/27 07:08:57;;;;;;;;;;;11.10;99.90;;;;;;4970824;28;19910;-77
2021/05/27 07:11:23;;;;;;;;;;;11.10;99.90;;;;;;4969895;28;20371;-77
2021/05/27 07:13:48;;;;;;;;;;;11.10;99.90;;;;;;4986298;28;19914;-77
2021/05/27 07:16:14;;;;;;;;;;;11.10;99.90;;;;;;4982748;28;19911;-78
2021/05/27 07:18:40;;;;;;;;;;;11.10;99.90;;;;;;4986912;28;19949;-77
2021/05/27 07:21:05;;;;;;;;;;;11.20;99.90;;;;;;4976396;28;19917;-78
2021/05/27 07:23:31;;;;;;;;;;;11.20;99.90;;;;;;4990649;28;19980;-78
2021/05/27 07:25:57;;;;;;;;;;;11.30;99.90;;;;;;4986296;28;20464;-79
2021/05/27 07:28:23;;;;;;;;;;;11.30;99.90;;;;;;4981726;28;19917;-79
2021/05/27 07:30:49;;;;;;;;;;;11.40;99.90;;;;;;4988269;28;19972;-78
2021/05/27 07:33:15;;;;;;;;;;;11.40;99.90;;;;;;4988360;28;19921;-79
2021/05/27 07:35:54;;;;;;;;;;;;;;;;;;;;;
2021/05/27 07:38:19;;;;;;;;;;;11.50;99.90;;;;;;4978350;28;19910;-78
2021/05/27 07:40:46;;;;;;;;;;;11.50;99.90;;;;;;4983616;28;19910;-78
2021/05/27 07:43:12;;;;;;;;;;;11.40;99.90;;;;;;4977094;28;19957;-78
2021/05/27 07:45:37;;;;;;;;;;;11.50;99.90;;;;;;4981335;28;19921;-78
2021/05/27 07:48:03;;;;;;;;;;;11.40;99.90;;;;;;4983345;28;20374;-79
2021/05/27 07:50:29;;;;;;;;;;;11.40;99.90;;;;;;4979237;28;19914;-79
2021/05/27 07:52:55;;;;;;;;;;;11.40;99.90;;;;;;4987799;28;19911;-80
2021/05/27 07:55:24;;;;;;;;;;;11.40;99.90;;;;;;4972726;28;19917;-81
2021/05/27 07:57:50;;;;;;;;;;;11.40;99.90;;;;;;4994806;28;19910;-80
2021/05/27 08:02:43;;;;;;;;;;;11.40;99.90;;;;;;5047282;28;19932;-61
2021/05/27 08:05:09;;;;;;;;;;;11.40;99.90;;;;;;5029704;28;20299;-60
2021/05/27 08:07:35;;;;;;;;;;;11.50;99.90;;;;;;5029058;28;20287;-61
2021/05/27 08:10:00;;;;;;;;;;;11.60;99.90;;;;;;5027633;28;19909;-61
2021/05/27 08:12:26;;;;;;;;;;;11.70;99.90;;;;;;5029369;28;20493;-60
2021/05/27 08:14:51;;;;;;;;;;;11.80;99.90;;;;;;5029208;28;20366;-61
2021/05/27 08:17:17;;;;;;;;;;;11.90;99.90;;;;;;5029115;28;19909;-61
2021/05/27 08:19:42;;;;;;;;;;;11.90;99.90;;;;;;5029070;28;20024;-59
2021/05/27 08:22:09;;;;;;;;;;;11.90;99.90;;;;;;5029107;28;20405;-60
2021/05/27 08:24:35;;;;;;;;;;;12.10;99.90;;;;;;5029195;28;19987;-60
2021/05/27 08:27:00;;;;;;;;;;;12.20;99.90;;;;;;5027367;28;20505;-59
2021/05/27 08:29:26;;;;;;;;;;;12.30;99.90;;;;;;5028290;28;19917;-60
2021/05/27 08:31:51;;;;;;;;;;;12.50;99.90;;;;;;5029102;28;19936;-60
2021/05/27 08:34:19;;;;;;;;;;;12.50;99.90;;;;;;5048676;22;20016;-46
2021/05/27 08:36:45;;;;;;;;;;;12.60;99.90;;;;;;5047634;28;19988;-44
2021/05/27 08:39:10;;;;;;;;;;;12.60;99.90;;;;;;5047739;28;20000;-44
2021/05/27 08:41:36;;;;;;;;;;;12.50;99.90;;;;;;5048363;28;20023;-46
2021/05/27 08:44:03;;;;;;;;;;;12.60;99.90;;;;;;5042412;28;19915;-46
2021/05/27 08:46:28;;;;;;;;;;;12.70;99.90;;;;;;5027945;28;19964;-44
2021/05/27 08:48:54;;;;;;;;;;;12.60;99.90;;;;;;5027645;28;19940;-42
2021/05/27 08:51:19;;;;;;;;;;;12.60;99.90;;;;;;5028096;28;20445;-45
2021/05/27 08:53:45;;;;;;;;;;;12.60;99.90;;;;;;5026622;28;19919;-45
2021/05/27 08:56:12;;;;;;;;;;;12.70;99.90;;;;;;5027833;28;19913;-46
2021/05/27 08:58:37;;;;;;;;;;;12.60;99.90;;;;;;5031186;28;20227;-44
2021/05/27 09:01:03;;;;;;;;;;;12.60;99.90;;;;;;5031197;28;20047;-43
2021/05/27 09:03:38;;;;;;;;;;;12.70;99.90;;;;;;5031415;28;19924;-43
2021/05/27 09:06:04;;;;;;;;;;;12.60;99.90;;;;;;5031810;28;19917;-43
2021/05/27 09:08:31;;;;;;;;;;;12.40;99.90;;;;;;5031797;28;19934;-43
2021/05/27 09:11:00;;;;;;;;;;;12.30;99.90;;;;;;5031732;28;19916;-46
2021/05/27 09:13:26;;;;;;;;;;;12.30;99.90;;;;;;5030710;28;19909;-45
2021/05/27 09:15:51;;;;;;;;;;;12.30;99.90;;;;;;5031831;28;19909;-42
2021/05/27 09:18:30;;;;;;;;;;;12.30;99.90;;;;;;5031161;28;19917;-42
2021/05/27 09:20:55;;;;;;;;;;;12.20;99.90;;;;;;5030550;28;20486;-47
2021/05/27 09:23:21;;;;;;;;;;;12.20;99.90;;;;;;5032011;28;19916;-45
2021/05/27 09:25:51;;;;;;;;;;;12.30;99.90;;;;;;5031662;28;20302;-43
2021/05/27 09:28:29;;;;;;;;;;;12.40;99.90;;;;;;5031722;28;19916;-44
2021/05/27 09:30:56;;;;;;;;;;;12.50;99.90;;;;;;5031355;28;20406;-42
2021/05/27 09:33:32;;;;;;;;;;;12.60;99.90;;;;;;5031713;28;19916;-45
2021/05/27 09:36:07;;;;;;;;;;;12.60;99.90;;;;;;5031700;28;20055;-44
2021/05/27 09:38:35;;;;;;;;;;;12.60;99.90;;;;;;5033243;28;19940;-46
2021/05/27 09:41:13;;;;;;;;;;;12.70;99.90;;;;;;5030992;28;19932;-44
2021/05/27 09:43:40;;;;;;;;;;;12.70;99.90;;;;;;5031377;28;21532;-51
2021/05/27 09:46:06;;;;;;;;;;;12.70;99.90;;;;;;5031303;28;19960;-47
2021/05/27 09:48:32;;;;;;;;;;;12.80;99.90;;;;;;5031463;28;19916;-49
2021/05/27 09:50:59;;;;;;;;;;;12.80;99.90;;;;;;5031041;28;19963;-47
2021/05/27 09:53:26;;;;;;;;;;;12.80;99.90;;;;;;5030392;28;19909;-48
2021/05/27 09:55:53;;;;;;;;;;;12.70;99.90;;;;;;5031531;28;19931;-48
2021/05/27 09:58:18;;;;;;;;;;;12.80;99.90;;;;;;5030821;28;20415;-47
2021/05/27 10:00:45;;;;;;;;;;;13.00;99.90;;;;;;5030726;28;19971;-48
2021/05/27 10:03:21;;;;;;;;;;;13.00;99.90;;;;;;5030123;28;19923;-48
2021/05/27 10:05:50;;;;;;;;;;;13.10;99.90;;;;;;5029067;28;19917;-48
2021/05/27 10:08:15;;;;;;;;;;;13.20;99.90;;;;;;5029101;28;19909;-47
2021/05/27 10:10:42;;;;;;;;;;;13.40;99.90;;;;;;5030181;28;19909;-47
2021/05/27 10:13:08;;;;;;;;;;;13.50;99.90;;;;;;5030169;28;19913;-51
2021/05/27 10:15:35;;;;;;;;;;;13.40;99.90;;;;;;5029969;28;19953;-50
2021/05/27 10:18:04;;;;;;;;;;;13.50;99.90;;;;;;5030250;28;20114;-47
2021/05/27 10:20:29;;;;;;;;;;;13.40;99.90;;;;;;5029275;28;19959;-46
2021/05/27 10:22:58;;;;;;;;;;;13.50;99.90;;;;;;5030072;28;20348;-50
2021/05/27 10:25:26;;;;;;;;;;;13.60;99.90;;;;;;5029468;28;20045;-47
2021/05/27 10:27:53;;;;;;;;;;;13.60;99.90;;;;;;5030171;28;20362;-48
2021/05/27 10:30:19;;;;;;;;;;;13.70;99.90;;;;;;5029040;28;19917;-51
2021/05/27 10:32:49;;;;;;;;;;;13.80;99.90;;;;;;5029945;28;19909;-51
2021/05/27 10:35:15;;;;;;;;;;;13.90;99.90;;;;;;5029567;28;19917;-47
2021/05/27 10:37:43;;;;;;;;;;;14.00;99.90;;;;;;5029883;28;20086;-48
2021/05/27 10:40:11;;;;;;;;;;;14.10;99.90;;;;;;5029903;28;20004;-53
2021/05/27 10:42:55;;;;;;;;;;;14.10;99.90;;;;;;5029733;28;19909;-50
2021/05/27 10:45:21;;;;;;;;;;;14.10;99.90;;;;;;5029317;28;20051;-51
2021/05/27 10:48:06;;;;;;;;;;;14.20;99.90;;;;;;5029543;28;20008;-50
2021/05/27 10:51:37;;;;;;;;;;;14.40;99.90;;;;;;5029292;28;19931;-51
2021/05/27 10:53:56;;;;;;;;;;;14.50;99.90;;;;;;5026386;28;19915;-49
2021/05/27 10:56:38;;;;;;;;;;;14.70;99.90;;;;;;5028716;28;19979;-51
2021/05/27 10:59:05;;;;;;;;;;;15.00;99.90;;;;;;5033752;28;20279;-51
2021/05/27 11:01:31;;;;;;;;;;;15.30;99.90;;;;;;5029503;28;19936;-48
2021/05/27 11:04:06;;;;;;;;;;;15.70;99.90;;;;;;5029291;28;20347;-49
2021/05/27 11:06:35;;;;;;;;;;;15.70;99.90;;;;;;5029143;28;19994;-50
2021/05/27 11:09:07;;;;;;;;;;;15.60;99.90;;;;;;5029269;28;19960;-47
2021/05/27 11:11:44;;;;;;;;;;;14.90;99.90;;;;;;5029285;28;19909;-50
2021/05/27 11:14:15;;;;;;;;;;;14.30;99.90;;;;;;5028886;28;20648;-48
2021/05/27 11:16:59;;;;;;;;;;;13.70;99.90;;;;;;5029060;28;19909;-50
2021/05/27 11:19:40;;;;;;;;;;;13.30;99.90;;;;;;5027840;28;19910;-47
2021/05/27 11:22:25;;;;;;;;;;;12.90;99.90;;;;;;5028721;28;20643;-52
2021/05/27 11:25:12;;;;;;;;;;;12.60;99.90;;;;;;5027874;28;19913;-50
2021/05/27 11:27:46;;;;;;;;;;;12.60;99.90;;;;;;5028462;28;19917;-47
2021/05/27 11:30:21;;;;;;;;;;;12.50;99.90;;;;;;5028620;28;20059;-47
2021/05/27 11:32:47;;;;;;;;;;;12.70;99.90;;;;;;5028895;28;19924;-52
2021/05/27 11:35:13;;;;;;;;;;;12.70;99.90;;;;;;5028907;28;19917;-51
2021/05/27 11:37:40;;;;;;;;;;;12.70;99.90;;;;;;5027151;28;19917;-51
2021/05/27 11:40:07;;;;;;;;;;;12.90;99.90;;;;;;5028289;28;19913;-49
2021/05/27 11:42:33;;;;;;;;;;;12.90;99.90;;;;;;5027976;28;19910;-50
2021/05/27 11:45:02;;;;;;;;;;;12.90;99.90;;;;;;5028428;28;19917;-50
2021/05/27 11:47:28;;;;;;;;;;;13.00;99.90;;;;;;5028536;28;19910;-48
2021/05/27 11:50:04;;;;;;;;;;;13.10;99.90;;;;;;5027928;28;19959;-49
2021/05/27 11:52:29;;;;;;;;;;;13.10;99.90;;;;;;5027812;28;20400;-49
2021/05/27 11:54:56;;;;;;;;;;;13.20;99.90;;;;;;5026217;28;20035;-48
2021/05/27 11:57:39;;;;;;;;;;;13.50;99.90;;;;;;5027828;28;19909;-46
2021/05/27 12:00:04;;;;;;;;;;;13.60;99.90;;;;;;5029434;28;19916;-46
2021/05/27 12:02:48;;;;;;;;;;;13.40;99.90;;;;;;5028180;28;19916;-46
2021/05/27 12:05:20;;;;;;;;;;;13.40;99.90;;;;;;5027558;28;19949;-48
2021/05/27 12:08:01;;;;;;;;;;;13.50;99.90;;;;;;5028113;28;19913;-48
2021/05/27 12:10:27;;;;;;;;;;;13.50;99.90;;;;;;5027035;28;19921;-48
2021/05/27 12:12:53;;;;;;;;;;;13.60;99.90;;;;;;5025656;28;19990;-48
2021/05/27 12:15:22;;;;;;;;;;;13.50;99.90;;;;;;5027665;28;20462;-46
2021/05/27 12:17:49;;;;;;;;;;;13.70;99.90;;;;;;5026567;28;20375;-49
2021/05/27 12:20:17;;;;;;;;;;;13.80;99.90;;;;;;5027632;28;19917;-50
2021/05/27 12:23:05;;;;;;;;;;;13.80;99.90;;;;;;5027276;28;19910;-52
2021/05/27 12:25:34;;;;;;;;;;;13.70;99.90;;;;;;5027023;28;19917;-49
2021/05/27 12:28:01;;;;;;;;;;;13.70;99.90;;;;;;5027456;28;19956;-51
2021/05/27 12:30:27;;;;;;;;;;;13.60;99.90;;;;;;5026903;28;19917;-50
2021/05/27 12:32:54;;;;;;;;;;;13.70;99.90;;;;;;5030039;28;19964;-51
2021/05/27 12:35:23;;;;;;;;;;;13.70;99.90;;;;;;5028930;28;20248;-48
2021/05/27 12:37:49;;;;;;;;;;;13.70;99.90;;;;;;5030753;28;20166;-47
2021/05/27 12:40:19;;;;;;;;;;;13.80;99.90;;;;;;5031251;28;19963;-50
2021/05/27 12:42:45;;;;;;;;;;;13.90;99.90;;;;;;5031086;28;19963;-47
2021/05/27 12:45:22;;;;;;;;;;;14.00;99.90;;;;;;5030939;28;20480;-49
2021/05/27 12:48:08;;;;;;;;;;;14.20;99.90;;;;;;5030809;28;19917;-49
2021/05/27 12:50:35;;;;;;;;;;;14.20;99.90;;;;;;5031060;28;19909;-47
2021/05/27 12:53:00;;;;;;;;;;;14.20;99.90;;;;;;5030823;28;19956;-49
2021/05/27 12:55:27;;;;;;;;;;;14.30;99.90;;;;;;5030363;28;19936;-51
2021/05/27 12:57:53;;;;;;;;;;;14.10;99.90;;;;;;5030644;28;19917;-50
2021/05/27 13:00:19;;;;;;;;;;;14.20;99.90;;;;;;5031165;28;19913;-49
2021/05/27 13:02:57;;;;;;;;;;;14.20;99.90;;;;;;5031552;28;19963;-54
2021/05/27 13:05:22;;;;;;;;;;;14.00;99.90;;;;;;5031253;28;19971;-53
2021/05/27 13:07:58;;;;;;;;;;;14.00;99.90;;;;;;5031347;28;20372;-50
2021/05/27 13:10:34;;;;;;;;;;;14.00;99.90;;;;;;5030233;28;19912;-48
2021/05/27 13:13:00;;;;;;;;;;;13.90;99.90;;;;;;5031154;28;19909;-52
2021/05/27 13:15:26;;;;;;;;;;;13.60;99.90;;;;;;5029550;28;19917;-50
2021/05/27 13:18:02;;;;;;;;;;;13.50;99.90;;;;;;5028457;28;19935;-48
2021/05/27 13:20:28;;;;;;;;;;;13.50;99.90;;;;;;5030641;28;19917;-51
2021/05/27 13:22:53;;;;;;;;;;;13.40;99.90;;;;;;5031036;28;19909;-49
2021/05/27 13:25:19;;;;;;;;;;;13.20;99.90;;;;;;5031013;28;19916;-49
2021/05/27 13:27:49;;;;;;;;;;;13.20;99.90;;;;;;5031332;28;19996;-50
2021/05/27 13:30:17;;;;;;;;;;;13.00;99.90;;;;;;5030828;28;19952;-49
2021/05/27 13:32:44;;;;;;;;;;;13.00;99.90;;;;;;5030661;28;19964;-53
2021/05/27 13:35:13;;;;;;;;;;;13.00;99.90;;;;;;5029870;28;19921;-50
2021/05/27 13:37:40;;;;;;;;;;;13.00;99.90;;;;;;5030959;28;20469;-51
2021/05/27 13:40:07;;;;;;;;;;;13.00;99.90;;;;;;5030560;28;19913;-51
2021/05/27 13:42:33;;;;;;;;;;;12.90;99.90;;;;;;5029146;28;20391;-53
2021/05/27 13:44:58;;;;;;;;;;;13.00;99.90;;;;;;5030489;28;19982;-50
2021/05/27 13:47:24;;;;;;;;;;;13.10;99.90;;;;;;5030810;28;20339;-53
2021/05/27 13:49:49;;;;;;;;;;;13.10;99.90;;;;;;5030141;28;20370;-55
2021/05/27 13:52:15;;;;;;;;;;;13.20;99.90;;;;;;5030747;28;19915;-50
2021/05/27 13:54:42;;;;;;;;;;;13.30;99.90;;;;;;5030436;28;20336;-50
2021/05/27 13:57:08;;;;;;;;;;;13.40;99.90;;;;;;5029793;28;20395;-49
2021/05/27 13:59:34;;;;;;;;;;;13.40;99.90;;;;;;5030095;28;20397;-48
2021/05/27 14:02:00;;;;;;;;;;;13.50;99.90;;;;;;5029906;28;19916;-54
2021/05/27 14:04:28;;;;;;;;;;;13.50;99.90;;;;;;5029431;28;20472;-51
2021/05/27 14:06:53;;;;;;;;;;;13.50;99.90;;;;;;5030120;28;20008;-54
2021/05/27 14:09:20;;;;;;;;;;;13.40;99.90;;;;;;5030256;28;20391;-50
2021/05/27 14:11:46;;;;;;;;;;;13.30;99.90;;;;;;5030549;28;19917;-52
2021/05/27 14:14:11;;;;;;;;;;;13.30;99.90;;;;;;5030974;28;19917;-49
2021/05/27 14:16:37;;;;;;;;;;;13.20;99.90;;;;;;5030427;28;19956;-48
2021/05/27 14:19:03;;;;;;;;;;;13.20;99.90;;;;;;5029840;28;19913;-51
2021/05/27 14:21:29;;;;;;;;;;;13.20;99.90;;;;;;5029922;28;19967;-49
2021/05/27 14:23:54;;;;;;;;;;;13.30;99.90;;;;;;5030209;28;19913;-48
2021/05/27 14:26:20;;;;;;;;;;;13.30;99.90;;;;;;5030563;28;19917;-51
2021/05/27 14:28:45;;;;;;;;;;;13.40;99.90;;;;;;5030397;28;19913;-49
2021/05/27 14:31:14;;;;;;;;;;;13.40;99.90;;;;;;5028760;28;19949;-48
2021/05/27 14:33:40;;;;;;;;;;;13.40;99.90;;;;;;5029031;28;19917;-48
2021/05/27 14:36:05;;;;;;;;;;;13.60;99.90;;;;;;5037473;22;19933;-56